< Typhoon 201316 2013 Season Typhoon 201318 >
Typhoon 201317 (TORAJI)
General InformationTrack Information on Google MapsDetailed Wind InformationForecast History on Google MapsAccess Analytics MapList of All Images || NewsDisaster Info.WeblogTrackbackTyphoon FrontTwiphoonTyphoon Now!Typhoon ImaginationDisaster Info. XMLResourceGoogle EarthGE AnimationAtom FeedGeoJSON
Detalied Best Track (Time Zone = UTC)
Year Month Day Hour Lat. Long. Pressure (hPa) Wind (kt) Class Image Chart
2013 8 31 00 25.6 121.5 1004 0 2 Image Chart
2013 8 31 06 24.8 121.9 1004 0 2 Image Chart
2013 8 31 12 24.7 122.4 1006 0 2 Image Chart
2013 8 31 18 25.0 122.8 1004 0 2 Image Chart
2013 9 1 00 25.3 123.3 1006 0 2 Image Chart
2013 9 1 06 25.7 123.8 1004 0 2 Image Chart
2013 9 1 12 26.0 124.3 1004 0 2 Image Chart
2013 9 1 18 26.3 124.8 1000 35 3 Image Chart
2013 9 2 00 26.6 125.5 996 40 3 Image Chart
2013 9 2 06 27.2 126.1 994 45 3 Image Chart
2013 9 2 12 27.7 126.6 992 45 3 Image Chart
2013 9 2 18 28.1 127.1 990 45 3 Image Chart
2013 9 3 00 28.6 127.5 985 50 4 Image Chart
2013 9 3 06 29.4 128.2 985 50 4 Image Chart
2013 9 3 12 30.0 129.2 985 50 4 Image Chart
2013 9 3 15 30.5 129.8 985 50 4 Image Chart
2013 9 3 18 31.4 130.5 985 50 4 Image Chart
2013 9 3 21 31.8 131.2 996 40 3 Image Chart
2013 9 4 00 32.9 132.8 1000 0 6 Image Chart
2013 9 4 06 32.9 133.5 1002 0 6 Image Chart
2013 9 4 12 32.5 134.0 1006 0 6 Image Chart
2013 9 4 18 32.8 135.9 1006 0 6 Image Chart
2013 9 5 00 33.5 136.6 1010 0 6 Image Chart
2013 9 5 06 33.9 137.7 1010 0 6 Image Chart
Japan Meteorological Agency Best Track Data | Correction Date : 2013-10-01
< Typhoon 201316 2013 Season Typhoon 201318 >

Help